createdAt,value
2018-07-04T00:00:58.034Z,4.90
2018-07-04T00:03:43.071Z,5.20
2018-07-04T00:06:28.180Z,4.73
2018-07-04T00:09:13.241Z,4.97
2018-07-04T00:11:58.658Z,5.07
2018-07-04T00:14:43.699Z,4.50
2018-07-04T00:17:22.915Z,4.40
2018-07-04T00:20:09.295Z,4.50
2018-07-04T00:22:54.542Z,4.20
2018-07-04T00:25:39.729Z,4.60
2018-07-04T00:28:25.033Z,5.03
2018-07-04T00:31:10.236Z,5.23
2018-07-04T00:33:55.553Z,5.40
2018-07-04T00:36:40.776Z,4.70
2018-07-04T00:39:26.092Z,4.57
2018-07-04T00:42:11.294Z,4.90
2018-07-04T00:44:56.524Z,5.13
2018-07-04T00:47:41.660Z,4.23
2018-07-04T00:50:28.038Z,4.43
2018-07-04T00:53:14.316Z,4.13
2018-07-04T00:55:59.916Z,4.10
2018-07-04T00:58:45.214Z,4.77
2018-07-04T01:01:30.576Z,4.43
2018-07-04T01:04:09.844Z,4.80
2018-07-04T01:06:54.993Z,4.73
2018-07-04T01:09:40.035Z,4.67
2018-07-04T01:12:25.181Z,4.63
2018-07-04T01:15:10.377Z,4.77
2018-07-04T01:17:56.560Z,5.47
2018-07-04T01:20:47.141Z,4.37
2018-07-04T01:23:32.348Z,4.67
2018-07-04T01:26:18.518Z,4.90
2018-07-04T01:29:03.693Z,4.67
2018-07-04T01:31:48.901Z,5.13
2018-07-04T01:34:35.122Z,5.43
2018-07-04T01:37:20.341Z,5.50
2018-07-04T01:40:05.689Z,5.30
2018-07-04T01:42:50.760Z,5.10
2018-07-04T01:45:35.792Z,5.77
2018-07-04T01:48:21.024Z,4.77
2018-07-04T01:51:06.309Z,5.10
2018-07-04T01:53:45.558Z,5.10
2018-07-04T01:56:30.827Z,5.07
2018-07-04T01:59:16.192Z,5.77
2018-07-04T02:01:55.389Z,5.93
2018-07-04T02:04:41.497Z,5.07
2018-07-04T02:07:26.720Z,4.63
2018-07-04T02:10:11.858Z,5.67
2018-07-04T02:12:52.071Z,4.60
2018-07-04T02:15:37.304Z,6.60
2018-07-04T02:18:22.467Z,5.83
2018-07-04T02:21:07.609Z,5.67
2018-07-04T02:23:52.749Z,6.43
2018-07-04T02:26:39.116Z,6.30
2018-07-04T02:29:25.359Z,5.93
2018-07-04T02:32:10.596Z,5.80
2018-07-04T02:34:59.749Z,5.20
2018-07-04T02:37:44.913Z,6.00
2018-07-04T02:40:30.212Z,5.43
2018-07-04T02:43:15.339Z,5.60
2018-07-04T02:45:54.485Z,5.20
2018-07-04T02:48:40.604Z,5.03
2018-07-04T02:51:26.786Z,4.93
2018-07-04T02:54:13.026Z,5.10
2018-07-04T02:56:58.439Z,5.23
2018-07-04T02:59:43.605Z,5.00
2018-07-04T03:02:28.969Z,5.30
2018-07-04T03:05:08.115Z,6.07
2018-07-04T03:07:53.779Z,5.30
2018-07-04T03:10:33.137Z,5.70
2018-07-04T03:13:18.299Z,6.27
2018-07-04T03:16:03.589Z,6.47
2018-07-04T03:18:48.717Z,6.13
2018-07-04T03:21:34.913Z,5.90
2018-07-04T03:24:20.193Z,5.17
2018-07-04T03:27:00.343Z,4.83
2018-07-04T03:29:45.483Z,4.00
2018-07-04T03:32:30.711Z,3.70
2018-07-04T03:35:15.909Z,3.57
2018-07-04T03:37:56.699Z,3.02
2018-07-04T03:40:42.617Z,2.62
2018-07-04T03:43:28.344Z,2.90
2018-07-04T03:46:14.019Z,2.92
2018-07-04T03:48:59.876Z,2.33
2018-07-04T03:51:45.697Z,2.75
2018-07-04T03:54:31.520Z,2.72
2018-07-04T03:57:17.318Z,2.60
2018-07-04T04:00:03.136Z,2.37
2018-07-04T04:02:48.939Z,3.00
2018-07-04T04:05:34.608Z,3.22
2018-07-04T04:08:20.404Z,2.72
2018-07-04T04:11:06.221Z,3.35
2018-07-04T04:13:52.391Z,3.30
2018-07-04T04:16:38.256Z,2.62
2018-07-04T04:19:38.445Z,2.92
2018-07-04T04:22:24.252Z,2.52
2018-07-04T04:25:09.839Z,2.35
2018-07-04T04:27:55.552Z,2.40
2018-07-04T04:30:41.367Z,2.10
2018-07-04T04:33:28.235Z,2.30
2018-07-04T04:36:13.992Z,2.60
2018-07-04T04:38:59.558Z,2.57
2018-07-04T04:41:44.910Z,2.37
2018-07-04T04:44:30.484Z,2.27
2018-07-04T04:47:16.992Z,2.23
2018-07-04T04:50:03.607Z,2.77
2018-07-04T04:52:54.806Z,2.30
2018-07-04T04:55:40.434Z,2.40
2018-07-04T04:58:26.829Z,2.17
2018-07-04T05:01:12.288Z,2.40
2018-07-04T05:03:57.700Z,2.07
2018-07-04T05:06:43.124Z,2.20
2018-07-04T05:09:28.630Z,2.50
2018-07-04T05:12:13.903Z,2.30
2018-07-04T05:14:59.691Z,2.33
2018-07-04T05:17:45.087Z,2.30
2018-07-04T05:20:30.754Z,2.30
2018-07-04T05:23:16.140Z,2.20
2018-07-04T05:26:01.603Z,2.60
2018-07-04T05:28:46.932Z,2.13
2018-07-04T05:31:32.571Z,2.37
2018-07-04T05:34:18.025Z,2.03
2018-07-04T05:37:03.482Z,1.90
2018-07-04T05:39:48.844Z,1.93
2018-07-04T05:42:35.356Z,2.23
2018-07-04T05:45:20.848Z,2.40
2018-07-04T05:48:06.355Z,1.97
2018-07-04T05:50:51.827Z,2.10
2018-07-04T05:53:37.242Z,2.20
2018-07-04T05:56:22.717Z,2.20
2018-07-04T05:59:09.256Z,2.17
2018-07-04T06:01:54.827Z,1.93
2018-07-04T06:04:41.280Z,2.30
2018-07-04T06:07:26.895Z,2.13
2018-07-04T06:10:12.357Z,2.27
2018-07-04T06:12:52.083Z,2.30
2018-07-04T06:15:37.703Z,1.93
2018-07-04T06:18:23.100Z,1.80
2018-07-04T06:21:08.712Z,2.10
2018-07-04T06:23:55.265Z,1.97
2018-07-04T06:26:40.748Z,2.40
2018-07-04T06:29:27.299Z,1.80
2018-07-04T06:32:12.734Z,2.27
2018-07-04T06:34:58.248Z,2.07
2018-07-04T06:37:37.555Z,1.83
2018-07-04T06:40:12.140Z,1.70
2018-07-04T06:42:45.158Z,2.20
2018-07-04T06:45:18.188Z,1.90
2018-07-04T06:47:51.208Z,1.90
2018-07-04T06:50:24.247Z,2.10
2018-07-04T06:52:57.281Z,1.83
2018-07-04T06:55:30.320Z,2.00
2018-07-04T06:58:03.337Z,2.00
2018-07-04T07:00:37.398Z,2.47
2018-07-04T07:03:24.307Z,1.98
2018-07-04T07:06:09.780Z,2.20
2018-07-04T07:09:01.475Z,2.50
2018-07-04T07:11:40.931Z,2.50
2018-07-04T07:14:28.248Z,2.20
2018-07-04T07:17:17.232Z,1.97
2018-07-04T07:20:03.030Z,2.20
2018-07-04T07:22:56.675Z,2.20
2018-07-04T07:25:42.310Z,2.20
2018-07-04T07:28:21.790Z,2.33
2018-07-04T07:31:07.401Z,2.03
2018-07-04T07:33:53.008Z,2.20
2018-07-04T07:36:38.625Z,1.80
2018-07-04T07:39:24.750Z,2.10
2018-07-04T07:42:10.291Z,1.80
2018-07-04T07:44:55.678Z,2.07
2018-07-04T07:47:40.936Z,1.50
2018-07-04T07:50:32.155Z,2.00
2018-07-04T07:53:21.910Z,1.83
2018-07-04T07:56:07.377Z,1.87
2018-07-04T07:58:46.850Z,1.60
2018-07-04T08:01:32.368Z,2.07
2018-07-04T08:04:18.920Z,1.73
2018-07-04T08:07:04.370Z,1.73
2018-07-04T08:09:43.793Z,1.80
2018-07-04T08:12:29.253Z,1.70
2018-07-04T08:15:14.610Z,1.90
2018-07-04T08:18:00.128Z,1.77
2018-07-04T08:23:40.156Z,2.00
2018-07-04T08:26:25.729Z,2.20
2018-07-04T08:29:11.402Z,1.60
2018-07-04T08:31:56.668Z,1.77
2018-07-04T08:34:42.271Z,1.80
2018-07-04T08:37:27.759Z,2.23
2018-07-04T08:40:13.260Z,1.40
2018-07-04T08:42:58.721Z,1.80
2018-07-04T08:45:44.287Z,2.00
2018-07-04T08:48:29.660Z,1.70
2018-07-04T08:51:15.090Z,1.40
2018-07-04T08:54:00.709Z,2.00
2018-07-04T08:56:46.141Z,1.73
2018-07-04T08:59:26.445Z,1.73
2018-07-04T09:02:11.726Z,1.97
2018-07-04T09:07:44.796Z,1.80
2018-07-04T09:10:32.044Z,1.60
2018-07-04T09:13:19.248Z,1.30
2018-07-04T09:16:04.763Z,1.40
2018-07-04T09:18:50.203Z,1.40
2018-07-04T09:21:35.724Z,1.43
2018-07-04T09:24:21.060Z,1.50
2018-07-04T09:27:06.886Z,1.67
2018-07-04T09:29:54.647Z,1.53
2018-07-04T09:32:40.420Z,1.70
2018-07-04T09:41:22.965Z,1.70
2018-07-04T09:44:10.173Z,1.30
2018-07-04T09:49:52.170Z,1.30
2018-07-04T09:52:45.880Z,1.80
2018-07-04T09:55:37.316Z,1.33
2018-07-04T10:01:18.805Z,1.40
2018-07-04T10:07:15.594Z,1.25
2018-07-04T10:10:04.772Z,1.40
2018-07-04T10:12:59.391Z,1.30
2018-07-04T10:15:50.480Z,1.50
2018-07-04T10:21:27.650Z,1.42
2018-07-04T10:24:18.616Z,1.32
2018-07-04T10:27:17.223Z,1.20
2018-07-04T10:33:00.320Z,1.32
2018-07-04T10:35:58.259Z,1.72
2018-07-04T10:38:52.973Z,1.10
2018-07-04T10:41:43.979Z,1.57
2018-07-04T10:44:46.170Z,1.72
2018-07-04T10:47:32.161Z,1.52
2018-07-04T10:50:18.889Z,1.57
2018-07-04T10:53:05.635Z,1.17
2018-07-04T10:55:59.392Z,1.25
2018-07-04T10:58:47.698Z,1.37
2018-07-04T11:01:37.169Z,1.32
2018-07-04T11:04:28.976Z,1.37
2018-07-04T11:07:20.137Z,0.90
2018-07-04T11:10:09.779Z,1.42
2018-07-04T11:12:59.503Z,1.35
2018-07-04T11:15:55.472Z,1.32
2018-07-04T11:21:41.070Z,1.20
2018-07-04T11:24:35.720Z,1.27
2018-07-04T11:27:29.083Z,1.15
2018-07-04T11:30:18.877Z,1.20
2018-07-04T11:33:06.704Z,1.22
2018-07-04T11:35:52.628Z,1.15
2018-07-04T11:38:39.301Z,1.25
2018-07-04T11:41:25.142Z,1.30
2018-07-04T11:44:10.845Z,2.30
2018-07-04T11:46:46.374Z,1.90
2018-07-04T11:49:19.695Z,1.50
2018-07-04T11:51:53.025Z,1.50
2018-07-04T11:54:26.324Z,1.17
2018-07-04T11:57:00.647Z,1.10
2018-07-04T11:59:34.939Z,0.90
2018-07-04T12:02:08.244Z,1.30
2018-07-04T12:04:54.182Z,1.20
2018-07-04T12:07:27.505Z,1.10
2018-07-04T12:10:02.794Z,1.30
2018-07-04T12:12:37.196Z,1.20
2018-07-04T12:15:10.511Z,1.22
2018-07-04T12:17:44.829Z,1.30
2018-07-04T12:20:18.135Z,1.10
2018-07-04T12:22:52.679Z,1.00
2018-07-04T12:25:26.007Z,1.30
2018-07-04T12:27:59.332Z,1.32
2018-07-04T12:30:33.801Z,1.00
2018-07-04T12:33:17.222Z,1.15
2018-07-04T12:35:51.546Z,1.20
2018-07-04T12:38:32.120Z,1.22
2018-07-04T12:41:06.451Z,1.05
2018-07-04T12:43:47.928Z,0.90
2018-07-04T12:46:42.293Z,1.15
2018-07-04T12:49:20.497Z,1.32
2018-07-04T12:52:07.724Z,1.17
2018-07-04T12:54:51.930Z,1.20
2018-07-04T12:57:44.139Z,1.37
2018-07-04T13:00:37.714Z,1.20
2018-07-04T13:03:26.232Z,1.05
2018-07-04T13:06:15.694Z,1.02
2018-07-04T13:09:05.770Z,0.78
2018-07-04T13:14:57.168Z,1.30
2018-07-04T13:17:42.976Z,1.00
2018-07-04T13:20:28.804Z,1.05
2018-07-04T13:23:14.596Z,1.05
2018-07-04T13:26:00.221Z,1.05
2018-07-04T13:28:46.095Z,1.27
2018-07-04T13:31:31.968Z,0.88
2018-07-04T13:34:20.136Z,1.15
2018-07-04T13:37:05.849Z,1.47
2018-07-04T13:39:52.583Z,1.00
2018-07-04T13:42:40.099Z,1.00
2018-07-04T13:45:25.786Z,1.12
2018-07-04T13:48:11.526Z,1.07
2018-07-04T13:50:51.320Z,0.82
2018-07-04T13:53:37.044Z,1.12
2018-07-04T13:56:16.822Z,1.50
2018-07-04T13:59:03.551Z,1.00
2018-07-04T14:01:49.332Z,1.12
2018-07-04T14:04:35.075Z,1.20
2018-07-04T14:07:20.846Z,0.90
2018-07-04T14:10:00.566Z,1.30
2018-07-04T14:12:46.180Z,1.10
2018-07-04T14:15:32.040Z,1.20
2018-07-04T14:18:17.862Z,1.10
2018-07-04T14:21:03.674Z,1.20
2018-07-04T14:23:49.357Z,1.35
2018-07-04T14:26:35.584Z,0.98
2018-07-04T14:29:21.452Z,1.00
2018-07-04T14:32:07.515Z,0.98
2018-07-04T14:34:53.218Z,0.90
2018-07-04T14:37:39.061Z,1.30
2018-07-04T14:40:18.837Z,0.90
2018-07-04T14:43:04.545Z,1.05
2018-07-04T14:45:51.321Z,0.98
2018-07-04T14:48:36.998Z,1.30
2018-07-04T14:51:22.859Z,1.00
2018-07-04T14:54:08.477Z,0.80
2018-07-04T14:56:54.376Z,1.15
2018-07-04T14:59:40.202Z,1.35
2018-07-04T15:02:27.143Z,0.80
2018-07-04T15:05:14.736Z,0.98
2018-07-04T15:08:00.587Z,1.20
2018-07-04T15:10:46.525Z,1.10
2018-07-04T15:13:32.363Z,0.90
2018-07-04T15:16:20.048Z,1.90
2018-07-04T15:19:05.849Z,1.00
2018-07-04T15:21:51.696Z,0.88
2018-07-04T15:24:38.827Z,1.05
2018-07-04T15:27:25.520Z,0.68
2018-07-04T15:30:11.411Z,0.70
2018-07-04T15:32:58.179Z,0.80
2018-07-04T15:35:44.157Z,0.95
2018-07-04T15:38:30.887Z,1.20
2018-07-04T15:41:16.754Z,0.95
2018-07-04T15:44:02.496Z,1.00
2018-07-04T15:46:57.176Z,0.98
2018-07-04T15:52:55.868Z,1.00
2018-07-04T15:55:43.738Z,1.07
2018-07-04T15:58:35.056Z,1.10
2018-07-04T16:01:25.950Z,1.60
2018-07-04T16:04:15.589Z,0.95
2018-07-04T16:07:05.282Z,1.10
2018-07-04T16:09:46.879Z,1.32
2018-07-04T16:12:33.444Z,1.50
2018-07-04T16:15:19.602Z,1.35
2018-07-04T16:18:06.559Z,0.98
2018-07-04T16:20:52.421Z,1.20
2018-07-04T16:23:39.116Z,1.32
2018-07-04T16:26:25.030Z,1.30
2018-07-04T16:29:10.769Z,1.20
2018-07-04T16:31:50.486Z,1.30
2018-07-04T16:34:36.860Z,1.20
2018-07-04T16:37:24.162Z,1.00
2018-07-04T16:40:11.150Z,1.30
2018-07-04T16:42:56.753Z,1.37
2018-07-04T16:45:42.664Z,1.40
2018-07-04T16:48:28.608Z,1.10
2018-07-04T16:51:09.262Z,1.20
2018-07-04T16:53:54.832Z,1.35
2018-07-04T16:56:40.600Z,1.32
2018-07-04T16:59:26.403Z,1.30
2018-07-04T17:02:12.247Z,1.95
2018-07-04T17:04:58.144Z,1.20
2018-07-04T17:07:43.806Z,1.55
2018-07-04T17:10:30.776Z,1.50
2018-07-04T17:13:16.659Z,1.50
2018-07-04T17:16:02.444Z,1.50
2018-07-04T17:18:48.112Z,1.70
2018-07-04T17:21:33.756Z,1.62
2018-07-04T17:24:19.550Z,1.60
2018-07-04T17:27:05.466Z,2.10
2018-07-04T17:29:51.228Z,1.75
2018-07-04T17:32:36.940Z,1.98
2018-07-04T17:35:22.724Z,1.98
2018-07-04T17:38:08.437Z,1.90
2018-07-04T17:40:54.332Z,2.10
2018-07-04T17:43:33.927Z,1.80
2018-07-04T17:46:19.648Z,2.10
2018-07-04T17:49:05.564Z,1.90
2018-07-04T17:51:52.446Z,2.60
2018-07-04T17:54:38.038Z,2.20
2018-07-04T17:57:24.896Z,2.70
2018-07-04T18:00:10.695Z,2.42
2018-07-04T18:02:56.433Z,2.62
2018-07-04T18:05:42.160Z,2.40
2018-07-04T18:08:28.058Z,2.50
2018-07-04T18:11:13.877Z,2.40
2018-07-04T18:14:00.641Z,2.42
2018-07-04T18:16:46.391Z,1.90
2018-07-04T18:19:32.324Z,1.80
2018-07-04T18:22:18.148Z,1.85
2018-07-04T18:25:04.807Z,1.92
2018-07-04T18:27:50.599Z,1.90
2018-07-04T18:30:36.343Z,1.98
2018-07-04T18:33:22.068Z,1.87
2018-07-04T18:36:07.692Z,2.25
2018-07-04T18:38:53.545Z,1.80
2018-07-04T18:41:33.311Z,1.60
2018-07-04T18:44:18.893Z,1.92
2018-07-04T18:47:04.720Z,1.32
2018-07-04T18:49:50.351Z,1.60
2018-07-04T18:52:36.152Z,2.00
2018-07-04T18:55:22.016Z,1.70
2018-07-04T18:58:02.782Z,1.20
2018-07-04T19:00:42.438Z,1.40
2018-07-04T19:03:29.163Z,1.92
2018-07-04T19:06:14.968Z,1.70
2018-07-04T19:09:02.664Z,1.70
2018-07-04T19:11:48.518Z,1.40
2018-07-04T19:14:35.280Z,1.27
2018-07-04T19:17:21.063Z,1.32
2018-07-04T19:20:06.701Z,1.42
2018-07-04T19:22:53.424Z,1.45
2018-07-04T19:25:39.281Z,1.40
2018-07-04T19:28:25.036Z,1.55
2018-07-04T19:31:10.776Z,1.60
2018-07-04T19:33:50.558Z,1.50
2018-07-04T19:36:36.236Z,1.50
2018-07-04T19:39:22.189Z,1.52
2018-07-04T19:42:01.965Z,1.80
2018-07-04T19:44:47.767Z,1.37
2018-07-04T19:47:33.425Z,1.65
2018-07-04T19:50:19.137Z,1.40
2018-07-04T19:53:05.949Z,1.57
2018-07-04T19:55:51.816Z,1.60
2018-07-04T19:58:37.508Z,1.70
2018-07-04T20:01:23.262Z,1.70
2018-07-04T20:04:09.209Z,2.85
2018-07-04T20:06:55.072Z,2.87
2018-07-04T20:09:41.719Z,1.98
2018-07-04T20:12:27.588Z,2.00
2018-07-04T20:15:14.249Z,2.10
2018-07-04T20:18:05.534Z,1.67
2018-07-04T20:20:51.177Z,1.60
2018-07-04T20:23:36.823Z,1.70
2018-07-04T20:26:22.608Z,2.12
2018-07-04T20:29:08.429Z,3.22
2018-07-04T20:31:54.184Z,4.33
2018-07-04T20:34:39.959Z,4.65
2018-07-04T20:37:27.222Z,3.02
2018-07-04T20:40:07.034Z,3.15
2018-07-04T20:42:52.784Z,2.30
2018-07-04T20:45:32.409Z,2.80
2018-07-04T20:48:19.070Z,2.33
2018-07-04T20:51:04.796Z,2.25
2018-07-04T20:53:50.476Z,2.47
2018-07-04T20:56:37.021Z,2.37
2018-07-04T20:59:22.616Z,2.37
2018-07-04T21:02:18.562Z,2.10
2018-07-04T21:05:05.654Z,2.40
2018-07-04T21:07:51.509Z,2.60
2018-07-04T21:10:31.289Z,2.12
2018-07-04T21:13:16.991Z,2.45
2018-07-04T21:16:11.720Z,2.27
2018-07-04T21:18:57.635Z,1.90
2018-07-04T21:21:43.409Z,2.40
2018-07-04T21:27:32.831Z,2.17
2018-07-04T21:33:21.366Z,2.27
2018-07-04T21:36:19.346Z,2.77
2018-07-04T21:42:10.983Z,2.75
2018-07-04T21:45:05.151Z,3.65
2018-07-04T21:50:52.753Z,4.60
2018-07-04T21:53:41.327Z,4.40
2018-07-04T21:56:32.304Z,5.17
2018-07-04T22:02:15.199Z,5.03
2018-07-04T22:05:08.081Z,4.45
2018-07-04T22:08:07.543Z,5.58
2018-07-04T22:11:03.448Z,5.93
2018-07-04T22:14:02.719Z,5.73
2018-07-04T22:16:47.780Z,7.07
2018-07-04T22:22:38.277Z,7.87
2018-07-04T22:25:38.595Z,8.10
2018-07-04T22:31:30.974Z,6.77
2018-07-04T22:37:22.193Z,5.97
2018-07-04T22:40:08.316Z,6.47
2018-07-04T22:43:00.963Z,6.40
2018-07-04T22:45:51.069Z,7.70
2018-07-04T22:48:36.086Z,6.67
2018-07-04T22:51:21.737Z,7.17
2018-07-04T22:54:10.293Z,8.70
2018-07-04T22:56:57.346Z,10.40
2018-07-04T22:59:44.241Z,9.43
2018-07-04T23:02:29.384Z,10.00
2018-07-04T23:05:23.590Z,9.63
2018-07-04T23:08:14.409Z,8.93
2018-07-04T23:10:53.646Z,9.07
2018-07-04T23:13:34.270Z,8.37
2018-07-04T23:16:22.764Z,8.63
2018-07-04T23:19:07.844Z,7.87
2018-07-04T23:21:54.944Z,7.03
2018-07-04T23:24:41.945Z,7.80
2018-07-04T23:27:35.745Z,8.00
2018-07-04T23:30:20.971Z,8.00
2018-07-04T23:33:06.185Z,8.30
2018-07-04T23:35:52.480Z,7.43
2018-07-04T23:38:37.627Z,7.00
2018-07-04T23:41:22.744Z,7.13
2018-07-04T23:44:08.121Z,6.63
2018-07-04T23:46:53.368Z,6.70
2018-07-04T23:49:38.538Z,6.27
2018-07-04T23:52:23.821Z,5.57
2018-07-04T23:55:09.063Z,6.27
2018-07-04T23:57:54.264Z,7.87
